Time;durP1;ratioP1;P1;durP2;ratioP2;P2;SDS_P1;SDS_P2;PMS_P1;PMS_P2;Temp;Humidity;BMP_temperature;BMP_pressure;BME280_temperature;BME280_humidity;BME280_pressure;Samples;Min_cycle;Max_cycle;Signal;HPM_P1;HPM_P2
2023/08/25 00:01:30;;;;;;;9.98;6.80;;;;;;;17.95;100.00;100594.09;6111417;23;20045;-74
2023/08/25 00:03:57;;;;;;;8.07;6.75;;;;;;;18.05;100.00;100608.25;6082977;23;20112;-73
2023/08/25 00:06:23;;;;;;;7.38;6.78;;;;;;;17.48;100.00;100538.72;6114415;23;20089;-72
2023/08/25 00:08:50;;;;;;;7.07;6.57;;;;;;;17.61;100.00;100558.91;6064272;23;20022;-73
2023/08/25 00:11:16;;;;;;;7.90;7.30;;;;;;;17.73;100.00;100557.88;6117649;23;20129;-73
2023/08/25 00:13:43;;;;;;;8.38;7.63;;;;;;;17.19;100.00;100469.53;6116024;23;20582;-75
2023/08/25 00:16:09;;;;;;;7.68;7.10;;;;;;;17.70;100.00;100548.34;6113281;23;20022;-73
2023/08/25 00:18:36;;;;;;;8.43;7.72;;;;;;;17.51;100.00;100516.38;6113010;23;20035;-73
2023/08/25 00:21:03;;;;;;;9.07;8.23;;;;;;;18.06;100.00;100599.34;6112708;23;20054;-73
2023/08/25 00:23:29;;;;;;;9.23;8.05;;;;;;;18.07;100.00;100610.78;6111258;23;20109;-73
2023/08/25 00:25:56;;;;;;;9.13;8.20;;;;;;;18.04;100.00;100595.97;6084038;23;20710;-73
2023/08/25 00:28:22;;;;;;;9.30;8.40;;;;;;;17.53;100.00;100514.44;6090082;23;20396;-72
2023/08/25 00:30:49;;;;;;;8.60;7.63;;;;;;;18.08;100.00;100599.19;6113281;23;20018;-72
2023/08/25 00:33:16;;;;;;;12.20;8.15;;;;;;;18.04;100.00;100588.00;6086854;23;20037;-72
2023/08/25 00:35:42;;;;;;;8.68;7.97;;;;;;;18.06;100.00;100587.84;6112806;23;20089;-72
2023/08/25 00:38:09;;;;;;;8.48;7.68;;;;;;;18.02;100.00;100592.59;6115081;23;20014;-72
2023/08/25 00:40:37;;;;;;;8.43;7.65;;;;;;;17.76;100.00;100557.63;6113676;23;20025;-72
2023/08/25 00:43:03;;;;;;;8.52;7.72;;;;;;;17.89;100.00;100565.41;6108739;23;22245;-73
2023/08/25 00:45:35;;;;;;;8.85;7.65;;;;;;;17.81;100.00;100554.56;6086684;23;20046;-73
2023/08/25 00:48:01;;;;;;;9.50;7.70;;;;;;;17.94;100.00;100579.09;6084858;23;20081;-72
2023/08/25 00:50:29;;;;;;;8.65;7.85;;;;;;;17.92;100.00;100587.22;6116412;23;20558;-72
2023/08/25 00:52:56;;;;;;;9.02;8.18;;;;;;;17.91;100.00;100572.25;6081625;23;20075;-74
2023/08/25 00:55:22;;;;;;;8.30;7.70;;;;;;;17.94;100.00;100587.06;6114403;23;20021;-72
2023/08/25 00:57:50;;;;;;;8.77;7.82;;;;;;;17.64;100.00;100548.00;6109054;23;20022;-72
2023/08/25 01:00:17;;;;;;;11.57;8.00;;;;;;;17.90;100.00;100589.16;6087033;23;20436;-74
2023/08/25 01:02:44;;;;;;;10.32;7.97;;;;;;;17.92;100.00;100595.19;6112161;23;20013;-73
2023/08/25 01:05:11;;;;;;;9.50;8.60;;;;;;;17.87;100.00;100586.75;6108160;23;20481;-73
2023/08/25 01:07:37;;;;;;;8.88;8.02;;;;;;;17.62;100.00;100532.25;6115501;23;20369;-73
2023/08/25 01:10:05;;;;;;;8.35;7.53;;;;;;;18.00;100.00;100596.34;6110249;23;20103;-73
2023/08/25 01:12:51;;;;;;;9.20;8.30;;;;;;;17.83;100.00;100560.59;6109796;23;20026;-73
2023/08/25 01:15:29;;;;;;;10.40;8.23;;;;;;;17.96;100.00;100568.38;6111326;23;20022;-73
2023/08/25 01:18:04;;;;;;;9.68;8.65;;;;;;;17.50;100.00;100509.38;6084689;23;20030;-73
2023/08/25 01:20:31;;;;;;;9.80;8.20;;;;;;;17.99;100.00;100590.19;6111880;23;20050;-72
2023/08/25 01:22:58;;;;;;;13.60;8.77;;;;;;;18.01;100.00;100587.41;6082347;23;20029;-73
2023/08/25 01:25:31;;;;;;;8.75;8.05;;;;;;;17.70;100.00;100532.44;6116010;23;20452;-73
2023/08/25 01:28:03;;;;;;;9.68;8.27;;;;;;;17.94;100.00;100566.69;6090375;23;20421;-73
2023/08/25 01:30:33;;;;;;;12.55;9.00;;;;;;;17.74;100.00;100554.25;6109783;23;20017;-75
2023/08/25 01:33:05;;;;;;;10.18;8.40;;;;;;;17.78;100.00;100566.28;6090402;23;20736;-73
2023/08/25 01:36:01;;;;;;;11.45;8.43;;;;;;;17.85;100.00;100586.06;6081790;23;20021;-73
2023/08/25 01:38:49;;;;;;;9.77;8.77;;;;;;;17.91;100.00;100590.00;6117788;23;20036;-74
2023/08/25 01:41:49;;;;;;;12.32;7.82;;;;;;;17.64;100.00;100543.56;6090075;23;20037;-73
2023/08/25 01:44:18;;;;;;;9.07;8.18;;;;;;;17.78;100.00;100546.84;6090512;23;20096;-73
2023/08/25 01:46:51;;;;;;;8.45;7.70;;;;;;;17.49;100.00;100507.72;6109447;23;20026;-74
2023/08/25 01:49:19;;;;;;;9.60;8.57;;;;;;;17.64;100.00;100537.41;6110514;23;20053;-73
2023/08/25 01:51:46;;;;;;;8.85;8.00;;;;;;;17.91;100.00;100556.31;6108373;23;20026;-73
2023/08/25 01:54:15;;;;;;;8.68;7.82;;;;;;;17.58;100.00;100491.03;6109139;23;20026;-73
2023/08/25 01:56:41;;;;;;;8.90;8.00;;;;;;;17.62;100.00;100486.25;6083309;23;20085;-73
2023/08/25 01:59:08;;;;;;;8.70;7.88;;;;;;;17.71;100.00;100504.91;6109647;23;21147;-73
2023/08/25 02:01:37;;;;;;;7.90;7.20;;;;;;;17.91;100.00;100527.13;6111608;23;20013;-73
2023/08/25 02:04:03;;;;;;;7.45;6.88;;;;;;;18.01;100.00;100535.13;6109543;23;20066;-73
2023/08/25 02:06:30;;;;;;;7.68;7.07;;;;;;;17.87;100.00;100500.97;6105352;23;20037;-73
2023/08/25 02:08:56;;;;;;;10.05;8.13;;;;;;;17.46;100.00;100445.16;6110767;23;20093;-73
2023/08/25 02:11:22;;;;;;;8.23;7.43;;;;;;;17.55;100.00;100444.34;6108014;23;20014;-73
2023/08/25 02:13:49;;;;;;;7.22;6.72;;;;;;;17.64;100.00;100463.97;6088150;23;20023;-73
2023/08/25 02:16:15;;;;;;;7.25;6.70;;;;;;;17.64;100.00;100449.81;6114704;23;20554;-73
2023/08/25 02:18:42;;;;;;;8.15;7.43;;;;;;;17.20;100.00;100412.00;6095429;23;20506;-73
2023/08/25 02:21:08;;;;;;;7.72;7.13;;;;;;;17.53;100.00;100451.59;6082872;23;20022;-73
2023/08/25 02:23:35;;;;;;;8.75;7.95;;;;;;;17.49;100.00;100422.81;6113012;23;20370;-73
2023/08/25 02:26:02;;;;;;;8.32;7.53;;;;;;;17.88;100.00;100497.34;6112215;23;20495;-73
2023/08/25 02:28:28;;;;;;;8.52;7.75;;;;;;;17.52;100.00;100455.22;6115214;23;20025;-73
2023/08/25 02:30:55;;;;;;;8.27;7.47;;;;;;;17.51;100.00;100447.38;6088171;23;20026;-74
2023/08/25 02:33:21;;;;;;;8.23;7.43;;;;;;;17.70;100.00;100473.19;6113793;23;20014;-73
2023/08/25 02:35:48;;;;;;;8.15;7.45;;;;;;;17.68;100.00;100470.69;6113360;23;20029;-73
2023/08/25 02:38:14;;;;;;;10.85;7.75;;;;;;;17.90;100.00;100459.09;6114110;23;20029;-73
2023/08/25 02:40:40;;;;;;;8.70;7.90;;;;;;;18.30;100.00;100437.00;6112493;23;20080;-73
2023/08/25 02:43:08;;;;;;;11.32;7.70;;;;;;;18.72;100.00;100435.91;6114519;23;20104;-74
2023/08/25 02:45:35;;;;;;;7.88;7.18;;;;;;;18.26;100.00;100350.56;6117580;23;20033;-73
2023/08/25 02:48:02;;;;;;;8.38;7.55;;;;;;;18.83;100.00;100400.41;6113207;23;20026;-73
2023/08/25 02:50:29;;;;;;;9.32;7.75;;;;;;;18.83;100.00;100366.69;6114677;23;20420;-73
2023/08/25 02:52:56;;;;;;;8.32;7.43;;;;;;;19.11;100.00;100369.44;6116677;23;20100;-74
2023/08/25 02:55:23;;;;;;;9.70;7.65;;;;;;;19.09;100.00;100350.94;6090011;23;20017;-73
2023/08/25 02:57:51;;;;;;;7.70;6.97;;;;;;;18.96;100.00;100357.56;6115021;23;20045;-73
2023/08/25 03:00:21;;;;;;;9.43;7.53;;;;;;;18.78;100.00;100307.72;6117246;23;20058;-73
2023/08/25 03:02:48;;;;;;;8.63;7.03;;;;;;;18.75;100.00;100347.91;6114853;23;20044;-73
2023/08/25 03:05:16;;;;;;;8.13;7.47;;;;;;;18.72;100.00;100353.50;6108151;23;20162;-73
2023/08/25 03:07:44;;;;;;;7.18;6.68;;;;;;;18.78;100.00;100382.16;6089805;23;20679;-73
2023/08/25 03:10:12;;;;;;;7.60;6.88;;;;;;;18.60;100.00;100366.13;6120553;23;20017;-73
2023/08/25 03:12:38;;;;;;;9.63;6.75;;;;;;;18.60;100.00;100374.09;6115221;23;20029;-74
2023/08/25 03:15:05;;;;;;;7.38;6.72;;;;;;;18.72;100.00;100357.00;6110996;23;20031;-73
2023/08/25 03:17:32;;;;;;;7.50;6.82;;;;;;;18.46;100.00;100329.31;6089282;23;20086;-74
2023/08/25 03:19:58;;;;;;;9.20;7.00;;;;;;;18.67;100.00;100351.28;6112646;23;20503;-73
2023/08/25 03:22:25;;;;;;;9.00;7.22;;;;;;;18.23;100.00;100283.59;6091171;23;20539;-73
2023/08/25 03:24:51;;;;;;;7.28;6.70;;;;;;;18.21;100.00;100302.31;6113466;23;20017;-73
2023/08/25 03:27:18;;;;;;;9.25;6.85;;;;;;;18.66;100.00;100349.59;6091162;23;20090;-73
2023/08/25 03:29:44;;;;;;;8.77;7.30;;;;;;;18.23;100.00;100296.88;6116865;23;20409;-72
2023/08/25 03:32:10;;;;;;;7.63;7.03;;;;;;;18.37;100.00;100300.94;6110071;23;20026;-73
2023/08/25 03:34:37;;;;;;;8.65;7.00;;;;;;;18.54;100.00;100330.31;6113799;23;20033;-73
2023/08/25 03:37:05;;;;;;;7.75;7.15;;;;;;;18.58;100.00;100328.19;6086136;23;20045;-72
2023/08/25 03:39:32;;;;;;;8.98;7.38;;;;;;;17.72;100.00;100179.28;6112651;23;20029;-73
2023/08/25 03:41:58;;;;;;;12.32;7.90;;;;;;;18.36;100.00;100270.84;6115567;23;20017;-72
2023/08/25 03:44:25;;;;;;;8.43;7.63;;;;;;;18.53;100.00;100317.16;6116215;23;20030;-74
2023/08/25 03:46:51;;;;;;;8.40;7.63;;;;;;;18.19;100.00;100266.28;6083894;23;20018;-73
2023/08/25 03:49:18;;;;;;;7.50;7.00;;;;;;;17.60;100.00;100169.78;6091182;23;20058;-73
2023/08/25 03:51:44;;;;;;;8.60;7.80;;;;;;;18.38;100.00;100281.34;6085958;23;20515;-73
2023/08/25 03:54:11;;;;;;;9.45;7.45;;;;;;;18.63;100.00;100275.44;6114588;23;20080;-72
2023/08/25 03:56:38;;;;;;;7.63;7.03;;;;;;;18.34;100.00;100296.72;6111210;23;20440;-73
2023/08/25 03:59:04;;;;;;;7.72;7.18;;;;;;;18.33;100.00;100298.56;6113181;23;20036;-73
2023/08/25 04:01:31;;;;;;;7.47;6.85;;;;;;;18.56;100.00;100321.34;6112297;23;20083;-72
2023/08/25 04:03:57;;;;;;;8.13;7.50;;;;;;;18.76;100.00;100311.53;6081744;23;20089;-73
2023/08/25 04:06:23;;;;;;;7.78;7.18;;;;;;;18.62;100.00;100271.13;6113852;23;20074;-72
2023/08/25 04:08:50;;;;;;;7.53;6.90;;;;;;;18.85;100.00;100257.53;6109062;23;20023;-72
2023/08/25 04:11:17;;;;;;;7.60;6.97;;;;;;;18.88;100.00;100292.66;6112882;23;20019;-72
2023/08/25 04:13:43;;;;;;;7.30;6.80;;;;;;;18.59;100.00;100230.72;6111557;23;20025;-72
2023/08/25 04:16:09;;;;;;;11.60;7.10;;;;;;;19.26;100.00;100293.50;6110581;23;20412;-73
2023/08/25 04:18:36;;;;;;;7.05;6.55;;;;;;;19.22;100.00;100257.50;6111255;23;20371;-73
2023/08/25 04:21:02;;;;;;;7.60;7.00;;;;;;;19.30;100.00;100240.81;6107433;23;20138;-73
2023/08/25 04:23:30;;;;;;;6.60;6.20;;;;;;;19.15;100.00;100256.44;6115869;23;20472;-72
2023/08/25 04:25:56;;;;;;;6.63;6.20;;;;;;;19.22;100.00;100288.59;6087309;23;20487;-73
2023/08/25 04:28:25;;;;;;;8.60;6.57;;;;;;;19.50;100.00;100285.00;6113751;23;20032;-73
2023/08/25 04:30:53;;;;;;;7.20;6.70;;;;;;;19.30;100.00;100211.56;6108250;23;20085;-73
2023/08/25 04:33:20;;;;;;;6.80;6.30;;;;;;;19.81;100.00;100270.56;6114889;23;20010;-73
2023/08/25 04:35:46;;;;;;;7.50;6.70;;;;;;;19.59;100.00;100263.78;6059705;23;20082;-72
2023/08/25 04:38:13;;;;;;;7.93;7.15;;;;;;;19.61;100.00;100253.84;6108632;23;20316;-73
2023/08/25 04:40:39;;;;;;;6.72;6.28;;;;;;;19.58;100.00;100227.50;6109599;23;20025;-72
2023/08/25 04:43:06;;;;;;;7.63;6.97;;;;;;;19.56;100.00;100222.31;6110816;23;20021;-73
2023/08/25 04:45:32;;;;;;;6.47;6.07;;;;;;;20.18;100.00;100262.41;6081752;23;20022;-72
2023/08/25 04:47:59;;;;;;;6.60;6.20;;;;;;;19.50;100.00;100202.50;6110960;23;20546;-72
2023/08/25 04:50:25;;;;;;;6.88;6.38;;;;;;;19.61;100.00;100244.03;6110084;23;20017;-72
2023/08/25 04:52:51;;;;;;;7.20;6.60;;;;;;;19.82;100.00;100248.25;6083426;23;20044;-72
2023/08/25 04:55:18;;;;;;;7.28;6.68;;;;;;;19.18;100.00;100144.41;6112271;23;20005;-72
2023/08/25 04:57:45;;;;;;;7.32;6.82;;;;;;;19.53;100.00;100222.63;6116073;23;20017;-72
2023/08/25 05:00:12;;;;;;;7.40;6.90;;;;;;;19.28;100.00;100232.16;6110304;23;20510;-72
2023/08/25 05:02:38;;;;;;;7.50;6.80;;;;;;;19.23;100.00;100229.13;6111177;23;20028;-73
2023/08/25 05:05:07;;;;;;;7.03;6.53;;;;;;;19.18;100.00;100255.31;6111216;23;20461;-74
2023/08/25 05:07:33;;;;;;;6.85;6.40;;;;;;;19.30;100.00;100254.13;6110148;23;20017;-72
2023/08/25 05:10:00;;;;;;;6.60;6.20;;;;;;;19.41;100.00;100247.78;6109043;23;20017;-72
2023/08/25 05:12:27;;;;;;;8.65;6.80;;;;;;;19.60;100.00;100250.31;6110491;23;20033;-72
2023/08/25 05:14:55;;;;;;;7.20;6.65;;;;;;;19.59;100.00;100200.75;6112385;23;20481;-73
2023/08/25 05:17:22;;;;;;;6.88;6.47;;;;;;;19.69;100.00;100196.19;6114829;23;20041;-73
2023/08/25 05:19:49;;;;;;;7.63;6.95;;;;;;;19.41;100.00;100184.75;6111116;23;20085;-72
2023/08/25 05:22:15;;;;;;;7.20;6.60;;;;;;;19.71;100.00;100238.66;6089463;23;20519;-72
2023/08/25 05:24:42;;;;;;;7.78;7.07;;;;;;;19.80;100.00;100240.41;6107861;23;20022;-73
2023/08/25 05:27:09;;;;;;;6.95;6.50;;;;;;;19.83;100.00;100237.47;6113376;23;20091;-73
2023/08/25 05:29:35;;;;;;;7.60;6.90;;;;;;;20.21;100.00;100232.81;6085037;23;20621;-73
2023/08/25 05:32:03;;;;;;;7.38;6.78;;;;;;;20.10;100.00;100228.53;6084846;23;21061;-73
2023/08/25 05:34:31;;;;;;;6.80;6.30;;;;;;;20.11;100.00;100227.56;6109392;23;20030;-73
2023/08/25 05:36:57;;;;;;;8.32;6.78;;;;;;;20.40;100.00;100238.94;6110444;23;20041;-73
2023/08/25 05:39:24;;;;;;;7.15;6.55;;;;;;;20.60;100.00;100219.13;6113117;23;20049;-73
2023/08/25 05:41:50;;;;;;;7.45;6.85;;;;;;;20.31;100.00;100190.91;6112220;23;20043;-73
2023/08/25 05:44:16;;;;;;;7.70;7.00;;;;;;;19.99;100.00;100116.09;6088713;23;20751;-73
2023/08/25 05:46:44;;;;;;;9.13;6.90;;;;;;;20.48;100.00;100177.69;6084413;23;20089;-73
2023/08/25 05:49:10;;;;;;;7.90;7.10;;;;;;;20.06;100.00;100103.81;6115462;23;20108;-73
2023/08/25 05:51:36;;;;;;;7.70;7.10;;;;;;;20.29;100.00;100150.25;6112042;23;20021;-73
2023/08/25 05:54:03;;;;;;;7.07;6.57;;;;;;;20.18;100.00;100144.34;6112830;23;20611;-72
2023/08/25 05:56:29;;;;;;;7.93;6.50;;;;;;;20.10;100.00;100134.47;6113320;23;20509;-72
2023/08/25 05:59:00;;;;;;;8.25;7.45;;;;;;;20.36;100.00;100113.16;6092146;23;20496;-73
2023/08/25 06:01:26;;;;;;;7.30;6.80;;;;;;;20.29;100.00;100107.63;6111886;23;20079;-73
2023/08/25 06:03:53;;;;;;;7.43;6.72;;;;;;;20.36;100.00;100118.47;6087763;23;20034;-73
2023/08/25 06:06:19;;;;;;;8.57;7.97;;;;;;;20.30;100.00;100111.13;6095872;23;20106;-73
2023/08/25 06:08:45;;;;;;;8.43;7.15;;;;;;;20.29;100.00;100102.28;6119127;23;20031;-73
2023/08/25 06:11:13;;;;;;;7.07;6.57;;;;;;;20.05;100.00;100043.53;6087031;23;20103;-72
2023/08/25 06:13:40;;;;;;;6.88;6.38;;;;;;;20.58;100.00;100098.44;6112564;23;20823;-72
2023/08/25 06:16:06;;;;;;;6.57;6.18;;;;;;;20.56;100.00;100094.25;6086945;23;20020;-73
2023/08/25 06:18:33;;;;;;;6.90;6.40;;;;;;;20.64;100.00;100111.16;6115691;23;20037;-73
2023/08/25 06:20:59;;;;;;;7.78;7.18;;;;;;;20.71;100.00;100124.69;6114225;23;20019;-73
2023/08/25 06:23:26;;;;;;;7.53;6.88;;;;;;;20.69;100.00;100092.03;6094495;23;20606;-73
2023/08/25 06:25:52;;;;;;;7.25;6.65;;;;;;;20.71;100.00;100055.38;6102337;23;20029;-72
2023/08/25 06:28:21;;;;;;;7.45;6.85;;;;;;;21.25;100.00;100114.53;6118270;23;20564;-72
2023/08/25 06:30:51;;;;;;;7.43;6.78;;;;;;;20.87;100.00;100057.25;6115258;23;20096;-72
2023/08/25 06:33:18;;;;;;;8.23;7.40;;;;;;;21.39;100.00;100105.06;6114010;23;20017;-73
2023/08/25 06:35:45;;;;;;;7.10;6.40;;;;;;;21.73;100.00;100124.63;6116148;23;20030;-73
2023/08/25 06:38:11;;;;;;;7.93;7.22;;;;;;;21.68;100.00;100109.09;6098006;23;20028;-73
2023/08/25 06:40:38;;;;;;;7.97;7.20;;;;;;;21.30;100.00;100058.81;6109796;23;20017;-74
2023/08/25 06:43:04;;;;;;;7.45;6.75;;;;;;;21.63;100.00;100114.94;6116161;23;20708;-73
2023/08/25 06:45:31;;;;;;;7.60;6.75;;;;;;;21.31;100.00;100087.19;6110356;23;20088;-72
2023/08/25 06:47:58;;;;;;;7.28;6.68;;;;;;;21.76;100.00;100124.31;6088502;23;20052;-73
2023/08/25 06:50:25;;;;;;;7.22;6.63;;;;;;;21.48;100.00;100053.34;6087430;23;20107;-72
2023/08/25 06:52:53;;;;;;;8.20;7.40;;;;;;;21.84;100.00;100093.06;6060019;23;20023;-72
2023/08/25 06:55:20;;;;;;;8.55;7.85;;;;;;;21.98;100.00;100058.66;6088874;23;20026;-73
2023/08/25 06:57:49;;;;;;;7.57;7.07;;;;;;;22.01;100.00;100024.44;6056713;23;20030;-74
2023/08/25 07:00:17;;;;;;;7.50;7.00;;;;;;;22.43;100.00;100001.06;6087010;23;20080;-72
2023/08/25 07:02:44;;;;;;;7.70;6.95;;;;;;;22.33;100.00;99971.03;6085374;23;20529;-73
2023/08/25 07:05:13;;;;;;;7.57;7.07;;;;;;;22.55;100.00;100034.47;6062304;23;20469;-72
2023/08/25 07:07:39;;;;;;;7.80;7.20;;;;;;;22.90;100.00;100030.41;6078423;23;20605;-72
2023/08/25 07:10:07;;;;;;;7.43;6.93;;;;;;;22.82;96.52;99958.22;6085080;23;20006;-73
2023/08/25 07:12:33;;;;;;;8.07;7.47;;;;;;;22.59;96.47;99984.97;6085771;23;20048;-73
2023/08/25 07:15:02;;;;;;;7.95;7.10;;;;;;;21.96;96.69;99975.19;6058561;23;20071;-73
2023/08/25 07:17:29;;;;;;;7.05;6.55;;;;;;;22.07;99.23;100090.53;6056822;23;20638;-73
2023/08/25 07:19:56;;;;;;;7.97;7.15;;;;;;;21.76;100.00;100141.16;6078416;23;20030;-72
2023/08/25 07:22:22;;;;;;;8.18;7.53;;;;;;;21.75;100.00;100165.34;6073757;23;20037;-70
2023/08/25 07:24:50;;;;;;;7.28;6.78;;;;;;;21.15;100.00;100073.81;6086964;23;20054;-71
2023/08/25 07:27:17;;;;;;;8.02;7.43;;;;;;;21.57;100.00;100162.81;6084161;23;20113;-71
2023/08/25 07:29:44;;;;;;;10.68;8.05;;;;;;;20.10;100.00;99948.81;6084067;23;20685;-71
2023/08/25 07:32:10;;;;;;;7.78;7.18;;;;;;;21.06;100.00;100154.84;6040773;23;20021;-72
2023/08/25 07:34:37;;;;;;;7.90;7.25;;;;;;;20.76;100.00;100161.53;6083605;23;20036;-71
2023/08/25 07:37:03;;;;;;;8.60;7.78;;;;;;;20.94;100.00;100180.13;6083142;23;20034;-71
2023/08/25 07:39:30;;;;;;;8.52;7.75;;;;;;;21.39;100.00;100208.31;6060065;23;20568;-72
2023/08/25 07:41:56;;;;;;;11.00;7.90;;;;;;;21.20;100.00;100228.09;6086518;23;20101;-70
2023/08/25 07:44:22;;;;;;;9.00;7.97;;;;;;;21.22;100.00;100237.59;6062634;23;20410;-70
2023/08/25 07:46:49;;;;;;;9.32;8.45;;;;;;;21.20;100.00;100220.94;6056415;23;20029;-71
2023/08/25 07:49:15;;;;;;;10.75;8.05;;;;;;;20.81;100.00;100189.41;6085793;23;20032;-70
2023/08/25 07:51:42;;;;;;;8.65;7.78;;;;;;;20.69;100.00;100215.50;6083497;23;20018;-70
2023/08/25 07:54:08;;;;;;;9.13;8.23;;;;;;;20.90;100.00;100291.63;6091547;23;20036;-70
2023/08/25 07:56:35;;;;;;;9.35;8.63;;;;;;;20.01;100.00;100108.78;6085598;23;20701;-69
2023/08/25 07:59:03;;;;;;;11.02;8.20;;;;;;;20.66;100.00;100205.16;6058819;23;20095;-70
2023/08/25 08:01:30;;;;;;;17.58;9.50;;;;;;;20.82;100.00;100227.59;6085486;23;20024;-70
2023/08/25 08:03:56;;;;;;;9.55;8.60;;;;;;;20.69;100.00;100214.69;6061361;23;20093;-70
2023/08/25 08:06:23;;;;;;;9.65;8.70;;;;;;;20.94;100.00;100306.34;6061755;23;20049;-70
2023/08/25 08:08:49;;;;;;;9.65;8.73;;;;;;;19.87;100.00;100177.56;6082900;23;20018;-70
2023/08/25 08:11:15;;;;;;;9.95;8.90;;;;;;;20.99;100.00;100399.22;6058831;23;20097;-70
2023/08/25 08:13:42;;;;;;;9.55;8.50;;;;;;;20.82;100.00;100374.28;6085540;23;20602;-69
2023/08/25 08:16:08;;;;;;;8.95;8.05;;;;;;;20.74;100.00;100368.88;6060170;23;20030;-70
2023/08/25 08:18:35;;;;;;;10.35;8.82;;;;;;;20.84;100.00;100374.94;6085967;23;20041;-70
2023/08/25 08:21:01;;;;;;;9.35;8.40;;;;;;;20.71;100.00;100317.53;6086455;23;20022;-69
2023/08/25 08:23:28;;;;;;;9.05;8.20;;;;;;;20.25;100.00;100258.16;6081769;23;20018;-67
2023/08/25 08:25:55;;;;;;;9.82;8.63;;;;;;;20.92;100.00;100361.69;6084832;23;20600;-66
2023/08/25 08:28:21;;;;;;;10.27;9.23;;;;;;;20.96;100.00;100325.69;6083540;23;20033;-66
2023/08/25 08:30:48;;;;;;;9.95;8.45;;;;;;;20.80;100.00;100346.91;6085293;23;20036;-66
2023/08/25 08:33:15;;;;;;;9.93;8.68;;;;;;;20.55;100.00;100328.03;6081680;23;21228;-68
2023/08/25 08:35:41;;;;;;;8.30;7.63;;;;;;;20.69;100.00;100345.34;6082301;23;20085;-68
2023/08/25 08:38:08;;;;;;;13.95;7.32;;;;;;;20.69;100.00;100359.50;6038771;23;20093;-66
2023/08/25 08:40:35;;;;;;;7.15;6.55;;;;;;;20.50;100.00;100304.47;6084541;23;20079;-65
2023/08/25 08:43:02;;;;;;;7.53;6.68;;;;;;;20.83;100.00;100278.09;6083895;23;20101;-65
2023/08/25 08:45:34;;;;;;;6.88;6.38;;;;;;;20.36;100.00;100189.59;6090288;23;20029;-67
2023/08/25 08:48:04;;;;;;;7.13;6.53;;;;;;;20.88;100.00;100266.97;6082805;23;20078;-68
2023/08/25 08:50:32;;;;;;;6.93;6.22;;;;;;;21.14;100.00;100247.41;6082367;23;20393;-68
2023/08/25 08:53:00;;;;;;;7.05;6.50;;;;;;;21.10;100.00;100247.72;6111093;23;20029;-67
2023/08/25 08:55:27;;;;;;;7.25;6.68;;;;;;;21.17;100.00;100273.78;6069491;23;20058;-66
2023/08/25 08:57:54;;;;;;;6.88;6.28;;;;;;;21.27;100.00;100291.34;6115451;23;20017;-66
2023/08/25 09:00:21;;;;;;;10.27;6.50;;;;;;;21.60;100.00;100291.50;6113649;23;20031;-67
2023/08/25 09:02:53;;;;;;;6.55;6.15;;;;;;;21.52;100.00;100262.94;6110568;23;20669;-65
2023/08/25 09:05:27;;;;;;;6.97;6.50;;;;;;;21.61;100.00;100270.97;6080340;23;20029;-67
2023/08/25 09:07:57;;;;;;;6.53;5.97;;;;;;;21.16;100.00;100192.06;6107869;23;20025;-69
2023/08/25 09:10:27;;;;;;;7.15;6.65;;;;;;;21.60;100.00;100240.78;6107279;23;20591;-65
2023/08/25 09:12:54;;;;;;;6.85;6.43;;;;;;;21.89;100.00;100267.06;6110467;23;20029;-66
2023/08/25 09:15:29;;;;;;;7.22;6.72;;;;;;;22.10;100.00;100229.16;6111712;23;20025;-66
2023/08/25 09:18:01;;;;;;;7.88;6.40;;;;;;;22.17;100.00;100207.09;6086974;23;20062;-66
2023/08/25 09:20:38;;;;;;;6.80;6.35;;;;;;;22.60;100.00;100226.50;6113258;23;20021;-67
2023/08/25 09:23:05;;;;;;;7.10;6.60;;;;;;;22.83;100.00;100214.06;6082121;23;20037;-65
2023/08/25 09:25:32;;;;;;;7.28;6.78;;;;;;;22.61;100.00;100177.34;6110509;23;20021;-68
2023/08/25 09:28:00;;;;;;;7.25;6.75;;;;;;;22.62;100.00;100177.16;6111483;23;20369;-67
2023/08/25 09:30:41;;;;;;;7.20;6.60;;;;;;;22.21;100.00;100128.25;6108758;23;20045;-67
2023/08/25 09:33:09;;;;;;;7.15;6.60;;;;;;;22.60;100.00;100183.69;6109971;23;20068;-66
2023/08/25 09:35:35;;;;;;;7.35;6.85;;;;;;;22.37;100.00;100171.06;6108987;23;20549;-66
2023/08/25 09:38:02;;;;;;;7.40;6.82;;;;;;;22.55;100.00;100172.66;6111233;23;20029;-67
2023/08/25 09:40:29;;;;;;;8.75;7.20;;;;;;;22.98;100.00;100179.38;6086438;23;20024;-67
2023/08/25 09:42:58;;;;;;;7.97;7.38;;;;;;;22.46;100.00;100119.22;6109252;23;20029;-69
2023/08/25 09:45:29;;;;;;;7.82;7.22;;;;;;;22.75;100.00;100179.28;6109785;23;20021;-69
2023/08/25 09:48:06;;;;;;;8.82;8.18;;;;;;;22.74;100.00;100183.00;6107813;23;20017;-69
2023/08/25 09:50:43;;;;;;;8.82;8.05;;;;;;;22.49;100.00;100211.63;6110127;23;21046;-69
2023/08/25 09:53:12;;;;;;;10.23;8.18;;;;;;;22.09;100.00;100237.34;6113345;23;20039;-69
2023/08/25 09:55:40;;;;;;;8.25;7.63;;;;;;;21.87;100.00;100222.78;6055815;23;20026;-69
2023/08/25 09:58:08;;;;;;;9.20;8.32;;;;;;;21.63;100.00;100229.78;6112122;23;20018;-69
2023/08/25 10:00:38;;;;;;;8.88;8.00;;;;;;;20.89;100.00;100132.63;6084809;23;20488;-69
2023/08/25 10:03:10;;;;;;;8.45;7.63;;;;;;;21.78;100.00;100282.56;6089497;23;20592;-69
2023/08/25 10:05:38;;;;;;;8.40;7.80;;;;;;;21.92;100.00;100297.94;6113496;23;20033;-69
2023/08/25 10:08:07;;;;;;;10.02;8.05;;;;;;;21.63;100.00;100295.69;6110516;23;20033;-68
2023/08/25 10:10:36;;;;;;;8.77;8.00;;;;;;;21.63;100.00;100317.91;6108950;23;20518;-70
2023/08/25 10:13:03;;;;;;;8.27;7.55;;;;;;;21.70;100.00;100350.13;6083718;23;20557;-69
2023/08/25 10:15:31;;;;;;;9.43;8.02;;;;;;;21.49;100.00;100331.88;6110321;23;20026;-69
2023/08/25 10:18:03;;;;;;;9.48;8.52;;;;;;;21.20;100.00;100358.88;6106299;23;20045;-69
2023/08/25 10:20:31;;;;;;;8.40;7.80;;;;;;;21.01;100.00;100367.94;6113377;23;20033;-69
2023/08/25 10:23:01;;;;;;;12.48;7.70;;;;;;;20.60;100.00;100341.75;6109381;23;20033;-68
2023/08/25 10:25:31;;;;;;;10.73;7.78;;;;;;;20.71;100.00;100397.53;6111806;23;20093;-70
2023/08/25 10:28:02;;;;;;;7.38;6.78;;;;;;;20.70;100.00;100395.00;6085124;23;20026;-69
2023/08/25 10:30:29;;;;;;;11.13;8.48;;;;;;;20.98;100.00;100433.09;6107056;23;20020;-69
2023/08/25 10:33:08;;;;;;;8.05;7.45;;;;;;;20.88;100.00;100473.19;6111428;23;20002;-68
2023/08/25 10:35:46;;;;;;;9.48;8.57;;;;;;;20.85;100.00;100478.00;6115524;23;20213;-70
2023/08/25 10:38:19;;;;;;;8.70;7.90;;;;;;;20.95;100.00;100430.75;6115957;23;20022;-69
2023/08/25 10:40:50;;;;;;;8.57;7.55;;;;;;;20.73;100.00;100400.03;6112669;23;20617;-68
2023/08/25 10:43:29;;;;;;;9.27;8.20;;;;;;;20.90;100.00;100377.00;6085245;23;20053;-69
2023/08/25 10:46:06;;;;;;;7.97;7.25;;;;;;;20.52;100.00;100366.47;6112023;23;20028;-69
2023/08/25 10:48:32;;;;;;;9.27;8.43;;;;;;;20.44;100.00;100370.91;6088986;23;20046;-69
2023/08/25 10:51:16;;;;;;;13.60;8.85;;;;;;;20.01;100.00;100309.38;6114832;23;20020;-69
2023/08/25 10:53:50;;;;;;;8.98;8.10;;;;;;;20.77;100.00;100364.06;6116447;23;20104;-70
2023/08/25 10:56:22;;;;;;;9.32;8.43;;;;;;;20.80;100.00;100362.91;6114751;23;20031;-68
2023/08/25 10:59:03;;;;;;;9.38;8.43;;;;;;;21.19;100.00;100378.53;6118777;23;20049;-69
2023/08/25 11:01:38;;;;;;;8.82;8.02;;;;;;;21.30;100.00;100364.94;6087350;23;20093;-69
2023/08/25 11:04:11;;;;;;;8.25;7.55;;;;;;;21.06;100.00;100301.56;6089245;23;20719;-69
2023/08/25 11:06:42;;;;;;;;;;;;;;;21.13;100.00;100331.97;6090827;23;20025;-70
2023/08/25 11:09:26;;;;;;;9.35;8.38;;;;;;;21.17;100.00;100346.69;6114158;23;19913;-68
2023/08/25 11:12:06;;;;;;;8.83;7.93;;;;;;;21.36;100.00;100352.78;6109203;23;20072;-69
2023/08/25 11:14:38;;;;;;;7.97;7.30;;;;;;;21.54;100.00;100326.88;6079060;23;20033;-69
2023/08/25 11:17:07;;;;;;;7.73;7.13;;;;;;;21.83;100.00;100302.44;6114371;23;20649;-68
2023/08/25 11:19:39;;;;;;;7.80;7.10;;;;;;;21.90;100.00;100290.09;6087293;23;20089;-69
2023/08/25 11:22:09;;;;;;;6.70;6.10;;;;;;;21.67;100.00;100267.69;6088203;23;20029;-69